createdAt,value
2022-11-13T00:01:28.583Z,1.95
2022-11-13T00:03:59.292Z,0.50
2022-11-13T00:06:26.124Z,0.70
2022-11-13T00:08:56.218Z,0.70
2022-11-13T00:11:23.493Z,0.60
2022-11-13T00:13:50.367Z,0.60
2022-11-13T00:16:20.461Z,0.80
2022-11-13T00:18:48.674Z,0.65
2022-11-13T00:21:16.679Z,0.93
2022-11-13T00:23:45.608Z,0.50
2022-11-13T00:26:18.180Z,0.60
2022-11-13T00:28:45.405Z,0.60
2022-11-13T00:31:15.446Z,0.60
2022-11-13T00:36:29.797Z,0.60
2022-11-13T00:38:57.109Z,0.50
2022-11-13T00:41:24.952Z,0.32
2022-11-13T00:43:53.033Z,0.20
2022-11-13T00:46:20.315Z,0.50
2022-11-13T00:48:47.471Z,0.50
2022-11-13T00:51:15.084Z,0.55
2022-11-13T00:53:42.209Z,0.30
2022-11-13T00:56:09.947Z,0.20
2022-11-13T00:58:39.318Z,0.43
2022-11-13T01:01:10.055Z,0.20
2022-11-13T01:03:37.646Z,1.48
2022-11-13T01:06:33.893Z,0.32
2022-11-13T01:09:00.784Z,0.60
2022-11-13T01:11:30.100Z,0.40
2022-11-13T01:13:57.632Z,0.25
2022-11-13T01:16:26.393Z,0.43
2022-11-13T01:18:57.042Z,0.50
2022-11-13T01:21:26.334Z,0.30
2022-11-13T01:23:54.729Z,0.30
2022-11-13T01:26:25.656Z,0.35
2022-11-13T01:28:53.119Z,0.40
2022-11-13T01:31:24.424Z,0.40
2022-11-13T01:33:52.135Z,0.35
2022-11-13T01:36:25.583Z,0.30
2022-11-13T01:38:53.288Z,0.40
2022-11-13T01:41:32.351Z,0.30
2022-11-13T01:43:59.538Z,0.50
2022-11-13T01:46:32.932Z,0.40
2022-11-13T01:49:08.480Z,0.25
2022-11-13T01:51:50.446Z,0.60
2022-11-13T01:54:30.354Z,0.30
2022-11-13T01:56:57.703Z,0.82
2022-11-13T01:59:31.971Z,0.52
2022-11-13T02:01:59.527Z,0.68
2022-11-13T02:04:28.047Z,0.32
2022-11-13T02:06:59.479Z,0.20
2022-11-13T02:09:33.690Z,0.50
2022-11-13T02:12:01.155Z,0.30
2022-11-13T02:14:29.677Z,0.43
2022-11-13T02:17:00.928Z,0.20
2022-11-13T02:19:36.047Z,0.40
2022-11-13T02:22:27.521Z,0.32
2022-11-13T02:24:55.986Z,0.55
2022-11-13T02:27:42.253Z,0.35
2022-11-13T02:30:26.580Z,0.50
2022-11-13T02:32:56.285Z,0.60
2022-11-13T02:35:31.136Z,0.30
2022-11-13T02:38:02.724Z,0.47
2022-11-13T02:40:30.638Z,0.40
2022-11-13T02:42:57.450Z,0.30
2022-11-13T02:45:24.405Z,0.45
2022-11-13T02:47:51.573Z,0.43
2022-11-13T02:50:18.779Z,0.50
2022-11-13T02:52:46.051Z,0.93
2022-11-13T02:55:12.846Z,0.40
2022-11-13T02:57:39.667Z,0.20
2022-11-13T03:00:12.372Z,0.50
2022-11-13T03:02:40.629Z,0.30
2022-11-13T03:05:12.864Z,0.40
2022-11-13T03:07:41.191Z,0.40
2022-11-13T03:10:09.297Z,0.30
2022-11-13T03:12:36.438Z,0.52
2022-11-13T03:15:04.006Z,0.45
2022-11-13T03:17:34.741Z,0.70
2022-11-13T03:20:01.827Z,0.60
2022-11-13T03:22:28.644Z,1.08
2022-11-13T03:24:55.522Z,0.90
2022-11-13T03:27:22.470Z,0.70
2022-11-13T03:29:49.385Z,0.80
2022-11-13T03:32:16.305Z,0.80
2022-11-13T03:34:43.098Z,0.80
2022-11-13T03:37:09.867Z,0.90
2022-11-13T03:39:36.635Z,0.98
2022-11-13T03:42:03.617Z,0.88
2022-11-13T03:44:30.443Z,1.13
2022-11-13T03:46:57.570Z,0.90
2022-11-13T03:49:24.332Z,1.15
2022-11-13T03:51:52.347Z,1.00
2022-11-13T03:54:19.165Z,1.10
2022-11-13T03:56:45.958Z,1.10
2022-11-13T03:59:12.690Z,1.13
2022-11-13T04:01:39.499Z,1.30
2022-11-13T04:04:06.226Z,1.10
2022-11-13T04:06:32.987Z,1.20
2022-11-13T04:08:59.750Z,1.30
2022-11-13T04:11:26.513Z,1.65
2022-11-13T04:13:53.362Z,1.17
2022-11-13T04:16:20.118Z,1.40
2022-11-13T04:18:47.095Z,1.58
2022-11-13T04:21:13.960Z,1.20
2022-11-13T04:23:40.882Z,1.30
2022-11-13T04:26:07.875Z,1.30
2022-11-13T04:28:34.761Z,1.65
2022-11-13T04:31:01.517Z,1.30
2022-11-13T04:33:28.497Z,1.70
2022-11-13T04:35:55.319Z,1.20
2022-11-13T04:38:22.084Z,0.93
2022-11-13T04:41:12.385Z,1.20
2022-11-13T04:43:39.172Z,1.48
2022-11-13T04:46:06.211Z,1.48
2022-11-13T04:48:33.052Z,1.60
2022-11-13T04:51:00.059Z,1.10
2022-11-13T04:53:26.985Z,1.33
2022-11-13T04:55:54.029Z,1.73
2022-11-13T04:58:20.912Z,1.67
2022-11-13T05:00:47.812Z,1.20
2022-11-13T05:03:14.566Z,2.08
2022-11-13T05:05:41.565Z,1.20
2022-11-13T05:08:08.401Z,1.20
2022-11-13T05:10:35.196Z,1.05
2022-11-13T05:13:02.178Z,1.10
2022-11-13T05:15:29.131Z,1.48
2022-11-13T05:17:55.984Z,0.90
2022-11-13T05:20:23.026Z,0.88
2022-11-13T05:22:49.842Z,1.30
2022-11-13T05:25:16.679Z,1.40
2022-11-13T05:27:43.433Z,1.15
2022-11-13T05:30:10.536Z,1.45
2022-11-13T05:32:37.405Z,1.33
2022-11-13T05:35:04.586Z,1.30
2022-11-13T05:37:31.518Z,1.30
2022-11-13T05:39:58.472Z,1.40
2022-11-13T05:42:25.306Z,1.85
2022-11-13T05:44:52.100Z,1.67
2022-11-13T05:47:18.935Z,1.83
2022-11-13T05:49:45.709Z,1.92
2022-11-13T05:52:12.572Z,1.60
2022-11-13T05:54:39.543Z,2.08
2022-11-13T05:57:06.302Z,2.10
2022-11-13T05:59:33.417Z,2.00
2022-11-13T06:02:00.942Z,2.08
2022-11-13T06:04:27.773Z,2.10
2022-11-13T06:06:54.573Z,1.70
2022-11-13T06:09:21.467Z,1.90
2022-11-13T06:11:49.338Z,2.00
2022-11-13T06:14:16.355Z,2.30
2022-11-13T06:16:43.205Z,2.03
2022-11-13T06:19:11.422Z,2.00
2022-11-13T06:21:40.497Z,2.03
2022-11-13T06:24:08.716Z,2.70
2022-11-13T06:26:37.556Z,1.73
2022-11-13T06:29:06.170Z,2.35
2022-11-13T06:31:35.132Z,2.25
2022-11-13T06:34:02.399Z,2.20
2022-11-13T06:36:31.838Z,2.05
2022-11-13T06:38:59.270Z,3.70
2022-11-13T06:41:32.217Z,4.00
2022-11-13T06:44:03.155Z,3.30
2022-11-13T06:46:31.172Z,3.30
2022-11-13T06:48:59.174Z,2.47
2022-11-13T06:51:28.942Z,2.40
2022-11-13T06:53:57.186Z,2.03
2022-11-13T06:56:24.320Z,2.13
2022-11-13T06:58:51.093Z,2.90
2022-11-13T07:01:20.968Z,5.97
2022-11-13T07:03:48.260Z,3.65
2022-11-13T07:06:18.381Z,4.05
2022-11-13T07:08:46.148Z,1.80
2022-11-13T07:11:17.171Z,1.90
2022-11-13T07:13:44.629Z,1.63
2022-11-13T07:16:17.479Z,1.63
2022-11-13T07:18:54.766Z,1.63
2022-11-13T07:21:22.588Z,1.70
2022-11-13T07:23:57.090Z,1.60
2022-11-13T07:26:34.365Z,3.00
2022-11-13T07:29:01.199Z,2.00
2022-11-13T07:31:28.508Z,2.13
2022-11-13T07:33:55.482Z,1.75
2022-11-13T07:36:22.412Z,1.42
2022-11-13T07:38:49.258Z,1.48
2022-11-13T07:41:20.740Z,1.67
2022-11-13T07:43:54.343Z,1.63
2022-11-13T07:46:21.196Z,1.20
2022-11-13T07:48:59.178Z,1.45
2022-11-13T07:51:26.363Z,1.40
2022-11-13T07:53:53.936Z,1.55
2022-11-13T07:56:27.857Z,1.40
2022-11-13T07:58:54.697Z,1.15
2022-11-13T08:01:21.820Z,1.88
2022-11-13T08:03:57.159Z,2.03
2022-11-13T08:06:27.634Z,1.30
2022-11-13T08:08:55.274Z,1.88
2022-11-13T08:11:22.734Z,1.80
2022-11-13T08:13:49.543Z,2.38
2022-11-13T08:16:16.753Z,2.35
2022-11-13T08:18:43.532Z,2.17
2022-11-13T08:21:14.650Z,2.10
2022-11-13T08:23:42.911Z,2.15
2022-11-13T08:26:10.556Z,2.25
2022-11-13T08:28:37.639Z,2.15
2022-11-13T08:31:04.822Z,1.80
2022-11-13T08:33:31.603Z,2.33
2022-11-13T08:36:00.633Z,2.25
2022-11-13T08:38:27.892Z,2.42
2022-11-13T08:41:05.946Z,2.38
2022-11-13T08:43:35.733Z,2.30
2022-11-13T08:46:04.265Z,2.00
2022-11-13T08:48:32.810Z,2.30
2022-11-13T08:51:00.974Z,1.80
2022-11-13T08:53:49.446Z,1.98
2022-11-13T08:56:20.418Z,2.10
2022-11-13T08:58:50.253Z,2.30
2022-11-13T09:01:17.602Z,1.38
2022-11-13T09:03:49.432Z,1.90
2022-11-13T09:08:49.985Z,2.33
2022-11-13T09:11:17.263Z,1.40
2022-11-13T09:13:45.818Z,1.50
2022-11-13T09:17:04.236Z,1.52
2022-11-13T09:19:31.102Z,2.05
2022-11-13T09:21:58.444Z,1.70
2022-11-13T09:24:25.276Z,1.77
2022-11-13T09:26:52.149Z,2.90
2022-11-13T09:29:21.097Z,1.88
2022-11-13T09:31:47.966Z,1.90
2022-11-13T09:34:38.307Z,2.10
2022-11-13T09:39:48.751Z,1.98
2022-11-13T09:42:24.914Z,1.80
2022-11-13T09:44:58.443Z,2.13
2022-11-13T09:47:39.038Z,1.85
2022-11-13T09:50:22.820Z,1.80
2022-11-13T09:52:52.531Z,2.00
2022-11-13T09:55:35.560Z,2.03
2022-11-13T09:58:18.941Z,2.03
2022-11-13T10:00:46.825Z,2.45
2022-11-13T10:03:17.669Z,2.20
2022-11-13T10:05:52.981Z,2.00
2022-11-13T10:08:28.978Z,2.15
2022-11-13T10:11:23.528Z,2.22
2022-11-13T10:13:59.137Z,1.85
2022-11-13T10:16:42.297Z,2.58
2022-11-13T10:19:28.541Z,1.95
2022-11-13T10:22:32.662Z,1.80
2022-11-13T10:25:12.750Z,2.03
2022-11-13T10:30:27.483Z,2.47
2022-11-13T10:32:54.555Z,2.35
2022-11-13T10:36:23.510Z,2.22
2022-11-13T10:39:19.778Z,2.38
2022-11-13T10:41:49.347Z,2.05
2022-11-13T10:44:49.118Z,1.98
2022-11-13T10:47:31.207Z,3.10
2022-11-13T10:50:32.099Z,2.22
2022-11-13T10:52:59.220Z,2.28
2022-11-13T10:55:32.410Z,2.22
2022-11-13T10:58:01.551Z,2.25
2022-11-13T11:00:37.202Z,2.03
2022-11-13T11:05:58.854Z,2.08
2022-11-13T11:08:34.931Z,2.65
2022-11-13T11:11:26.331Z,1.90
2022-11-13T11:14:07.323Z,2.63
2022-11-13T11:16:34.434Z,2.33
2022-11-13T11:19:06.515Z,3.10
2022-11-13T11:21:36.657Z,2.30
2022-11-13T11:24:14.342Z,2.35
2022-11-13T11:27:15.313Z,2.67
2022-11-13T11:29:52.024Z,2.05
2022-11-13T11:32:27.551Z,2.70
2022-11-13T11:35:00.398Z,2.55
2022-11-13T11:38:10.792Z,2.60
2022-11-13T11:40:48.640Z,2.85
2022-11-13T11:43:22.907Z,2.63
2022-11-13T11:45:50.266Z,2.53
2022-11-13T11:48:20.308Z,3.08
2022-11-13T11:51:20.800Z,2.85
2022-11-13T11:54:15.857Z,2.63
2022-11-13T11:56:47.527Z,2.80
2022-11-13T11:59:34.424Z,2.95
2022-11-13T12:02:15.848Z,3.10
2022-11-13T12:05:01.780Z,2.80
2022-11-13T12:07:37.492Z,3.08
2022-11-13T12:10:19.394Z,3.20
2022-11-13T12:13:04.687Z,3.45
2022-11-13T12:15:49.352Z,3.33
2022-11-13T12:18:59.415Z,3.38
2022-11-13T12:21:45.667Z,3.08
2022-11-13T12:24:18.279Z,3.60
2022-11-13T12:26:57.356Z,3.50
2022-11-13T12:29:45.904Z,3.85
2022-11-13T12:32:34.179Z,4.18
2022-11-13T12:35:15.446Z,3.60
2022-11-13T12:38:03.304Z,3.65
2022-11-13T12:40:32.552Z,4.07
2022-11-13T12:43:27.706Z,4.95
2022-11-13T12:46:08.454Z,5.07
2022-11-13T12:49:00.830Z,4.68
2022-11-13T12:51:42.864Z,4.85
2022-11-13T12:54:10.972Z,5.72
2022-11-13T12:56:39.296Z,4.90
2022-11-13T12:59:36.080Z,6.20
2022-11-13T13:02:09.132Z,5.45
2022-11-13T13:05:13.373Z,6.00
2022-11-13T13:08:34.089Z,5.97
2022-11-13T13:11:12.924Z,5.45
2022-11-13T13:14:03.895Z,5.15
2022-11-13T13:16:31.077Z,6.45
2022-11-13T13:19:28.576Z,6.05
2022-11-13T13:21:56.222Z,5.97
2022-11-13T13:24:43.668Z,6.53
2022-11-13T13:27:30.462Z,6.43
2022-11-13T13:33:13.073Z,6.18
2022-11-13T13:35:51.975Z,6.35
2022-11-13T13:38:51.919Z,6.03
2022-11-13T13:41:53.486Z,5.57
2022-11-13T13:44:36.228Z,6.05
2022-11-13T13:47:11.264Z,6.13
2022-11-13T13:49:42.500Z,9.77
2022-11-13T13:52:16.469Z,10.50
2022-11-13T13:54:46.276Z,7.82
2022-11-13T13:57:16.759Z,5.97
2022-11-13T13:59:49.661Z,6.20
2022-11-13T14:02:19.246Z,6.32
2022-11-13T14:04:54.733Z,6.55
2022-11-13T14:07:35.893Z,6.38
2022-11-13T14:10:09.984Z,6.70
2022-11-13T14:12:42.592Z,6.20
2022-11-13T14:15:27.403Z,5.97
2022-11-13T14:18:06.777Z,7.22
2022-11-13T14:20:56.076Z,6.07
2022-11-13T14:23:30.240Z,7.50
2022-11-13T14:25:58.486Z,7.28
2022-11-13T14:28:28.510Z,6.78
2022-11-13T14:30:57.401Z,6.65
2022-11-13T14:33:52.066Z,6.00
2022-11-13T14:36:32.549Z,6.45
2022-11-13T14:39:00.121Z,6.60
2022-11-13T14:41:41.814Z,6.90
2022-11-13T14:44:11.993Z,6.78
2022-11-13T14:46:44.562Z,6.20
2022-11-13T14:49:40.852Z,7.43
2022-11-13T14:52:19.996Z,7.13
2022-11-13T14:55:13.790Z,7.28
2022-11-13T14:57:34.055Z,7.40
2022-11-13T15:00:13.226Z,7.40
2022-11-13T15:02:40.090Z,8.57
2022-11-13T15:05:08.432Z,8.82
2022-11-13T15:07:43.976Z,10.85
2022-11-13T15:10:16.301Z,8.55
2022-11-13T15:12:43.313Z,9.50
2022-11-13T15:15:28.857Z,10.57
2022-11-13T15:17:56.094Z,12.55
2022-11-13T15:20:33.068Z,11.40
2022-11-13T15:23:00.850Z,11.32
2022-11-13T15:25:28.053Z,10.20
2022-11-13T15:28:04.254Z,10.45
2022-11-13T15:30:31.079Z,9.95
2022-11-13T15:32:59.706Z,9.60
2022-11-13T15:35:27.764Z,10.10
2022-11-13T15:37:54.934Z,10.60
2022-11-13T15:40:26.883Z,10.10
2022-11-13T15:42:53.661Z,11.20
2022-11-13T15:45:20.532Z,11.35
2022-11-13T15:47:47.584Z,12.60
2022-11-13T15:50:15.826Z,11.68
2022-11-13T15:52:49.013Z,10.25
2022-11-13T15:55:33.685Z,10.95
2022-11-13T16:00:47.701Z,9.52
2022-11-13T16:08:58.339Z,10.68
2022-11-13T16:11:26.926Z,9.77
2022-11-13T16:13:54.040Z,10.77
2022-11-13T16:16:24.114Z,12.50
2022-11-13T16:18:55.818Z,12.52
2022-11-13T16:21:29.253Z,11.32
2022-11-13T16:23:56.617Z,13.73
2022-11-13T16:26:30.060Z,13.23
2022-11-13T16:31:43.151Z,17.77
2022-11-13T16:34:21.402Z,12.73
2022-11-13T16:36:52.286Z,12.00
2022-11-13T16:39:19.583Z,11.13
2022-11-13T16:41:49.656Z,10.75
2022-11-13T16:44:16.493Z,14.63
2022-11-13T16:46:46.857Z,14.25
2022-11-13T16:49:22.130Z,14.23
2022-11-13T16:54:42.803Z,13.20
2022-11-13T16:57:13.785Z,12.77
2022-11-13T16:59:45.643Z,15.27
2022-11-13T17:02:17.554Z,15.25
2022-11-13T17:10:16.816Z,13.45
2022-11-13T17:12:44.572Z,14.38
2022-11-13T17:15:14.681Z,14.63
2022-11-13T17:20:53.795Z,12.75
2022-11-13T17:23:21.178Z,13.27
2022-11-13T17:31:15.521Z,12.83
2022-11-13T17:33:42.968Z,13.10
2022-11-13T17:36:20.903Z,12.40
2022-11-13T17:38:50.647Z,13.40
2022-11-13T17:44:05.400Z,15.60
2022-11-13T17:46:38.309Z,15.70
2022-11-13T17:51:49.394Z,18.35
2022-11-13T17:56:57.638Z,17.58
2022-11-13T17:59:25.741Z,15.88
2022-11-13T18:02:07.609Z,25.63
2022-11-13T18:04:34.666Z,19.67
2022-11-13T18:07:10.400Z,15.27
2022-11-13T18:09:37.630Z,17.20
2022-11-13T18:12:08.967Z,16.75
2022-11-13T18:14:37.742Z,17.73
2022-11-13T18:17:07.170Z,18.17
2022-11-13T18:22:07.503Z,17.48
2022-11-13T18:24:37.803Z,16.95
2022-11-13T18:27:06.334Z,18.45
2022-11-13T18:29:33.879Z,18.60
2022-11-13T18:32:02.233Z,20.42
2022-11-13T18:34:30.642Z,19.23
2022-11-13T18:36:59.914Z,18.17
2022-11-13T18:39:29.676Z,18.80
2022-11-13T18:42:05.674Z,17.80
2022-11-13T18:44:32.932Z,16.48
2022-11-13T18:47:05.542Z,14.88
2022-11-13T18:52:17.964Z,13.80
2022-11-13T18:57:26.684Z,11.68
2022-11-13T19:00:06.457Z,12.88
2022-11-13T19:02:37.940Z,13.07
2022-11-13T19:05:17.369Z,13.77
2022-11-13T19:07:53.303Z,15.77
2022-11-13T19:10:20.322Z,16.33
2022-11-13T19:12:47.411Z,15.68
2022-11-13T19:15:14.354Z,16.75
2022-11-13T19:17:41.801Z,15.05
2022-11-13T19:22:51.460Z,14.95
2022-11-13T19:25:18.997Z,13.73
2022-11-13T19:27:45.899Z,14.13
2022-11-13T19:30:13.042Z,15.00
2022-11-13T19:32:40.322Z,15.00
2022-11-13T19:35:10.388Z,13.57
2022-11-13T19:37:37.237Z,13.27
2022-11-13T19:40:06.278Z,12.93
2022-11-13T19:42:34.629Z,13.65
2022-11-13T19:45:04.329Z,13.15
2022-11-13T19:47:34.462Z,12.95
2022-11-13T19:55:27.980Z,13.98
2022-11-13T19:57:55.993Z,14.05
2022-11-13T20:00:23.158Z,15.65
2022-11-13T20:02:50.027Z,15.55
2022-11-13T20:05:17.494Z,15.82
2022-11-13T20:07:44.869Z,15.63
2022-11-13T20:10:15.718Z,14.68
2022-11-13T20:12:42.603Z,15.00
2022-11-13T20:15:10.198Z,14.80
2022-11-13T20:17:38.195Z,16.55
2022-11-13T20:20:07.690Z,14.43
2022-11-13T20:25:29.038Z,17.63
2022-11-13T20:27:59.040Z,16.00
2022-11-13T20:30:29.963Z,16.90
2022-11-13T20:32:59.332Z,17.00
2022-11-13T20:38:17.731Z,16.10
2022-11-13T20:43:41.783Z,20.73
2022-11-13T20:46:14.014Z,17.45
2022-11-13T20:48:41.517Z,17.00
2022-11-13T20:51:22.169Z,16.88
2022-11-13T20:53:56.922Z,13.57
2022-11-13T20:56:27.703Z,12.90
2022-11-13T20:59:17.971Z,13.05
2022-11-13T21:01:52.617Z,13.18
2022-11-13T21:07:03.014Z,11.32
2022-11-13T21:09:32.782Z,10.57
2022-11-13T21:11:59.624Z,8.75
2022-11-13T21:14:28.685Z,8.88
2022-11-13T21:17:02.138Z,7.03
2022-11-13T21:19:33.653Z,8.05
2022-11-13T21:27:25.381Z,10.00
2022-11-13T21:29:52.200Z,8.43
2022-11-13T21:32:21.898Z,9.35
2022-11-13T21:41:15.127Z,10.00
2022-11-13T21:43:43.154Z,9.55
2022-11-13T21:46:11.112Z,12.93
2022-11-13T21:48:42.267Z,13.02
2022-11-13T21:51:12.566Z,12.97
2022-11-13T21:53:40.257Z,15.50
2022-11-13T21:56:11.225Z,15.45
2022-11-13T21:58:43.325Z,14.93
2022-11-13T22:03:57.143Z,15.00
2022-11-13T22:06:27.075Z,15.77
2022-11-13T22:09:03.168Z,31.77
2022-11-13T22:11:33.459Z,34.97
2022-11-13T22:14:01.482Z,18.83
2022-11-13T22:16:31.263Z,16.17
2022-11-13T22:19:00.648Z,16.58
2022-11-13T22:21:29.487Z,17.92
2022-11-13T22:23:57.271Z,19.83
2022-11-13T22:26:26.355Z,17.15
2022-11-13T22:28:55.305Z,18.80
2022-11-13T22:31:29.659Z,17.02
2022-11-13T22:33:58.907Z,17.15
2022-11-13T22:36:28.568Z,17.58
2022-11-13T22:38:56.612Z,18.23
2022-11-13T22:41:31.513Z,19.35
2022-11-13T22:44:08.093Z,18.75
2022-11-13T22:46:37.467Z,18.00
2022-11-13T22:49:06.415Z,17.45
2022-11-13T22:51:41.629Z,16.48
2022-11-13T22:54:10.708Z,15.32
2022-11-13T22:56:39.154Z,16.30
2022-11-13T22:59:08.046Z,16.75
2022-11-13T23:01:36.406Z,16.10
2022-11-13T23:04:05.926Z,15.68
2022-11-13T23:06:34.860Z,15.00
2022-11-13T23:09:04.269Z,14.80
2022-11-13T23:11:38.076Z,15.05
2022-11-13T23:14:08.787Z,13.90
2022-11-13T23:16:36.279Z,14.15
2022-11-13T23:19:04.968Z,14.23
2022-11-13T23:21:36.342Z,14.02
2022-11-13T23:24:03.459Z,16.13
2022-11-13T23:26:31.209Z,17.35
2022-11-13T23:28:58.993Z,17.10
2022-11-13T23:31:26.077Z,16.98
2022-11-13T23:33:53.326Z,18.17
2022-11-13T23:36:20.202Z,16.60
2022-11-13T23:38:47.265Z,17.73
2022-11-13T23:41:14.142Z,17.65
2022-11-13T23:44:07.754Z,17.05
2022-11-13T23:46:28.308Z,14.98
2022-11-13T23:48:55.203Z,16.60
2022-11-13T23:51:22.094Z,16.05
2022-11-13T23:53:48.888Z,16.52
2022-11-13T23:56:15.810Z,16.38
2022-11-13T23:58:42.857Z,15.15
